createdAt,value
2022-12-03T00:00:13.105Z,0.00
2022-12-03T00:01:11.875Z,0.00
2022-12-03T00:02:12.040Z,0.00
2022-12-03T00:03:12.076Z,0.00
2022-12-03T00:04:11.894Z,0.00
2022-12-03T00:05:11.832Z,0.00
2022-12-03T00:06:11.833Z,0.00
2022-12-03T00:07:11.811Z,0.00
2022-12-03T00:08:11.871Z,0.00
2022-12-03T00:09:11.899Z,0.00
2022-12-03T00:10:11.951Z,0.00
2022-12-03T00:11:11.734Z,0.00
2022-12-03T00:12:11.741Z,0.00
2022-12-03T00:13:11.707Z,0.00
2022-12-03T00:14:11.731Z,0.00
2022-12-03T00:15:11.961Z,0.00
2022-12-03T00:16:11.769Z,0.00
2022-12-03T00:17:11.655Z,0.00
2022-12-03T00:18:11.661Z,0.00
2022-12-03T00:19:11.649Z,0.00
2022-12-03T00:20:11.629Z,0.00
2022-12-03T00:21:11.851Z,0.00
2022-12-03T00:22:12.840Z,0.00
2022-12-03T00:23:11.579Z,0.00
2022-12-03T00:24:11.583Z,0.00
2022-12-03T00:25:11.544Z,0.00
2022-12-03T00:26:11.552Z,0.00
2022-12-03T00:27:11.676Z,0.00
2022-12-03T00:28:11.551Z,0.00
2022-12-03T00:29:11.474Z,0.00
2022-12-03T00:30:11.511Z,0.00
2022-12-03T00:31:11.489Z,0.00
2022-12-03T00:32:11.474Z,0.00
2022-12-03T00:33:11.606Z,0.00
2022-12-03T00:34:11.508Z,0.00
2022-12-03T00:35:11.402Z,0.00
2022-12-03T00:36:11.419Z,0.00
2022-12-03T00:37:11.405Z,0.00
2022-12-03T00:38:11.389Z,0.00
2022-12-03T00:39:11.522Z,0.00
2022-12-03T00:40:11.439Z,0.00
2022-12-03T00:41:11.322Z,0.00
2022-12-03T00:42:11.353Z,0.00
2022-12-03T00:43:11.364Z,0.00
2022-12-03T00:44:11.316Z,0.00
2022-12-03T00:45:11.443Z,0.00
2022-12-03T00:46:11.389Z,0.00
2022-12-03T00:47:11.306Z,0.00
2022-12-03T00:48:11.256Z,0.00
2022-12-03T00:49:11.214Z,0.00
2022-12-03T00:50:11.259Z,0.00
2022-12-03T00:51:11.400Z,0.00
2022-12-03T00:52:11.239Z,0.00
2022-12-03T00:53:11.932Z,0.00
2022-12-03T00:54:11.206Z,0.00
2022-12-03T00:55:11.235Z,0.00
2022-12-03T00:56:11.141Z,0.00
2022-12-03T00:57:11.200Z,0.00
2022-12-03T00:58:11.342Z,0.00
2022-12-03T00:59:11.074Z,0.00
2022-12-03T01:00:11.358Z,0.00
2022-12-03T01:01:11.050Z,0.00
2022-12-03T01:02:11.093Z,0.00
2022-12-03T01:03:11.121Z,0.00
2022-12-03T01:04:11.161Z,0.00
2022-12-03T01:05:11.185Z,0.00
2022-12-03T01:06:10.993Z,0.00
2022-12-03T01:07:10.974Z,0.00
2022-12-03T01:08:11.047Z,0.00
2022-12-03T01:09:11.098Z,0.00
2022-12-03T01:10:10.984Z,0.00
2022-12-03T01:11:10.920Z,0.00
2022-12-03T01:12:10.921Z,0.00
2022-12-03T01:13:10.983Z,0.00
2022-12-03T01:14:10.913Z,0.00
2022-12-03T01:15:10.952Z,0.00
2022-12-03T01:16:11.036Z,0.00
2022-12-03T01:17:10.834Z,0.00
2022-12-03T01:18:10.836Z,0.00
2022-12-03T01:19:10.819Z,0.00
2022-12-03T01:20:10.825Z,0.00
2022-12-03T01:21:10.769Z,0.00
2022-12-03T01:22:10.958Z,0.00
2022-12-03T01:23:10.745Z,0.00
2022-12-03T01:24:10.754Z,0.00
2022-12-03T01:25:10.726Z,0.00
2022-12-03T01:26:10.739Z,0.00
2022-12-03T01:27:10.684Z,0.00
2022-12-03T01:28:10.813Z,0.00
2022-12-03T01:29:10.666Z,0.00
2022-12-03T01:30:10.705Z,0.00
2022-12-03T01:31:10.672Z,0.00
2022-12-03T01:32:10.641Z,0.00
2022-12-03T01:33:10.596Z,0.00
2022-12-03T01:34:10.749Z,0.00
2022-12-03T01:35:10.576Z,0.00
2022-12-03T01:36:10.580Z,0.00
2022-12-03T01:37:10.544Z,0.00
2022-12-03T01:38:10.561Z,0.00
2022-12-03T01:39:10.532Z,0.00
2022-12-03T01:40:10.742Z,0.00
2022-12-03T01:41:12.025Z,0.00
2022-12-03T01:42:10.517Z,0.00
2022-12-03T01:43:10.468Z,0.00
2022-12-03T01:44:10.476Z,0.00
2022-12-03T01:45:10.451Z,0.00
2022-12-03T01:46:10.701Z,0.00
2022-12-03T01:47:10.489Z,0.00
2022-12-03T01:48:10.424Z,0.00
2022-12-03T01:49:10.383Z,0.00
2022-12-03T01:50:10.391Z,0.00
2022-12-03T01:51:10.353Z,0.00
2022-12-03T01:52:10.565Z,0.00
2022-12-03T01:53:10.342Z,0.00
2022-12-03T01:54:10.346Z,0.00
2022-12-03T01:55:10.305Z,0.00
2022-12-03T01:56:10.308Z,0.00
2022-12-03T01:57:10.269Z,0.00
2022-12-03T01:58:10.523Z,0.00
2022-12-03T01:59:10.247Z,0.00
2022-12-03T02:00:10.291Z,0.00
2022-12-03T02:01:10.235Z,0.00
2022-12-03T02:02:10.278Z,0.00
2022-12-03T02:03:10.188Z,0.00
2022-12-03T02:04:10.548Z,0.00
2022-12-03T02:05:10.164Z,0.00
2022-12-03T02:06:10.187Z,0.00
2022-12-03T02:07:10.134Z,0.00
2022-12-03T02:08:10.190Z,0.00
2022-12-03T02:09:10.106Z,0.00
2022-12-03T02:10:10.284Z,0.00
2022-12-03T02:11:10.108Z,0.00
2022-12-03T02:12:10.063Z,0.00
2022-12-03T02:13:10.171Z,0.00
2022-12-03T02:14:10.044Z,0.00
2022-12-03T02:15:10.073Z,0.00
2022-12-03T02:16:10.441Z,0.00
2022-12-03T02:17:10.149Z,0.00
2022-12-03T02:18:10.103Z,0.00
2022-12-03T02:19:10.014Z,0.00
2022-12-03T02:20:10.092Z,0.00
2022-12-03T02:21:10.075Z,0.00
2022-12-03T02:22:10.215Z,0.00
2022-12-03T02:23:10.008Z,0.00
2022-12-03T02:24:09.929Z,0.00
2022-12-03T02:25:10.004Z,0.00
2022-12-03T02:26:09.921Z,0.00
2022-12-03T02:27:09.932Z,0.00
2022-12-03T02:28:10.009Z,0.00
2022-12-03T02:29:09.847Z,0.00
2022-12-03T02:30:09.871Z,0.00
2022-12-03T02:31:09.886Z,0.00
2022-12-03T02:32:09.802Z,0.00
2022-12-03T02:33:09.791Z,0.00
2022-12-03T02:34:10.005Z,0.00
2022-12-03T02:35:09.772Z,0.00
2022-12-03T02:36:09.736Z,0.00
2022-12-03T02:37:09.745Z,0.00
2022-12-03T02:38:09.711Z,0.00
2022-12-03T02:39:09.719Z,0.00
2022-12-03T02:40:09.881Z,0.00
2022-12-03T02:41:09.683Z,0.00
2022-12-03T02:42:09.649Z,0.00
2022-12-03T02:43:09.654Z,0.00
2022-12-03T02:44:09.620Z,0.00
2022-12-03T02:45:09.683Z,0.00
2022-12-03T02:46:09.787Z,0.00
2022-12-03T02:47:09.698Z,0.00
2022-12-03T02:48:09.566Z,0.00
2022-12-03T02:49:09.607Z,0.00
2022-12-03T02:50:09.533Z,0.00
2022-12-03T02:51:09.548Z,0.00
2022-12-03T02:52:09.622Z,0.00
2022-12-03T02:53:09.525Z,0.00
2022-12-03T02:54:09.475Z,0.00
2022-12-03T02:55:09.637Z,0.00
2022-12-03T02:56:09.456Z,0.00
2022-12-03T02:57:09.471Z,0.00
2022-12-03T02:58:09.665Z,0.00
2022-12-03T02:59:09.437Z,0.00
2022-12-03T03:00:09.454Z,0.00
2022-12-03T03:01:09.494Z,0.00
2022-12-03T03:02:09.446Z,0.00
2022-12-03T03:03:09.388Z,0.00
2022-12-03T03:04:09.572Z,0.00
2022-12-03T03:05:09.357Z,0.00
2022-12-03T03:06:09.303Z,0.00
2022-12-03T03:07:09.332Z,0.00
2022-12-03T03:08:09.372Z,0.00
2022-12-03T03:09:09.310Z,0.00
2022-12-03T03:10:09.550Z,0.00
2022-12-03T03:11:09.280Z,0.00
2022-12-03T03:12:09.244Z,0.00
2022-12-03T03:13:09.298Z,0.00
2022-12-03T03:14:09.224Z,0.00
2022-12-03T03:15:09.256Z,0.00
2022-12-03T03:16:09.493Z,0.00
2022-12-03T03:17:09.197Z,0.00
2022-12-03T03:18:09.165Z,0.00
2022-12-03T03:19:09.168Z,0.00
2022-12-03T03:20:09.127Z,0.00
2022-12-03T03:21:09.533Z,0.00
2022-12-03T03:22:09.332Z,0.00
2022-12-03T03:23:09.175Z,0.00
2022-12-03T03:24:09.082Z,0.00
2022-12-03T03:25:09.079Z,0.00
2022-12-03T03:26:09.044Z,0.00
2022-12-03T03:27:09.047Z,0.00
2022-12-03T03:28:09.199Z,0.00
2022-12-03T03:29:09.022Z,0.00
2022-12-03T03:30:08.992Z,0.00
2022-12-03T03:31:09.038Z,0.00
2022-12-03T03:32:09.033Z,0.00
2022-12-03T03:33:08.968Z,0.00
2022-12-03T03:34:09.042Z,0.00
2022-12-03T03:35:08.930Z,0.00
2022-12-03T03:36:08.930Z,0.00
2022-12-03T03:37:08.920Z,0.00
2022-12-03T03:38:08.871Z,0.00
2022-12-03T03:39:08.882Z,0.00
2022-12-03T03:40:09.039Z,0.00
2022-12-03T03:41:10.337Z,0.00
2022-12-03T03:42:08.820Z,0.00
2022-12-03T03:43:08.838Z,0.00
2022-12-03T03:44:08.790Z,0.00
2022-12-03T03:45:08.822Z,0.00
2022-12-03T03:46:09.011Z,0.00
2022-12-03T03:47:08.780Z,0.00
2022-12-03T03:48:08.736Z,0.00
2022-12-03T03:49:08.746Z,0.00
2022-12-03T03:50:08.714Z,0.00
2022-12-03T03:51:09.031Z,0.00
2022-12-03T03:52:08.855Z,0.00
2022-12-03T03:53:08.695Z,0.00
2022-12-03T03:54:08.664Z,0.00
2022-12-03T03:55:08.674Z,0.00
2022-12-03T03:56:09.061Z,0.00
2022-12-03T03:57:08.640Z,0.00
2022-12-03T03:58:08.769Z,0.00
2022-12-03T03:59:08.633Z,0.00
2022-12-03T04:00:08.731Z,0.00
2022-12-03T04:01:08.670Z,0.00
2022-12-03T04:02:08.560Z,0.00
2022-12-03T04:03:08.556Z,0.00
2022-12-03T04:04:08.812Z,0.00
2022-12-03T04:05:08.533Z,0.00
2022-12-03T04:06:08.480Z,0.00
2022-12-03T04:07:08.507Z,0.00
2022-12-03T04:08:08.532Z,0.00
2022-12-03T04:09:08.470Z,0.00
2022-12-03T04:10:08.551Z,0.00
2022-12-03T04:11:08.440Z,0.00
2022-12-03T04:12:08.408Z,0.00
2022-12-03T04:13:08.414Z,0.00
2022-12-03T04:14:08.378Z,0.00
2022-12-03T04:15:08.504Z,0.00
2022-12-03T04:16:08.575Z,0.00
2022-12-03T04:17:08.369Z,0.00
2022-12-03T04:18:08.331Z,0.00
2022-12-03T04:19:08.329Z,0.00
2022-12-03T04:20:08.287Z,0.00
2022-12-03T04:21:08.304Z,0.00
2022-12-03T04:22:08.396Z,0.00
2022-12-03T04:23:08.416Z,0.00
2022-12-03T04:24:08.237Z,0.00
2022-12-03T04:25:08.300Z,0.00
2022-12-03T04:26:08.204Z,0.00
2022-12-03T04:27:08.225Z,0.00
2022-12-03T04:28:08.366Z,0.00
2022-12-03T04:29:08.197Z,0.00
2022-12-03T04:30:08.326Z,0.00
2022-12-03T04:31:08.223Z,0.00
2022-12-03T04:32:08.124Z,0.00
2022-12-03T04:33:08.144Z,0.00
2022-12-03T04:34:08.251Z,0.00
2022-12-03T04:35:08.149Z,0.00
2022-12-03T04:36:08.074Z,0.00
2022-12-03T04:37:08.083Z,0.00
2022-12-03T04:38:08.050Z,0.00
2022-12-03T04:39:08.065Z,0.00
2022-12-03T04:40:08.220Z,0.00
2022-12-03T04:41:08.032Z,0.00
2022-12-03T04:42:07.995Z,0.00
2022-12-03T04:43:08.030Z,0.00
2022-12-03T04:44:07.960Z,0.00
2022-12-03T04:45:08.050Z,0.00
2022-12-03T04:46:08.265Z,0.00
2022-12-03T04:47:07.958Z,0.00
2022-12-03T04:48:07.903Z,0.00
2022-12-03T04:49:07.927Z,0.00
2022-12-03T04:50:07.881Z,0.00
2022-12-03T04:51:07.905Z,0.00
2022-12-03T04:52:08.038Z,0.00
2022-12-03T04:53:07.879Z,0.00
2022-12-03T04:54:07.827Z,0.00
2022-12-03T04:55:07.845Z,0.00
2022-12-03T04:56:07.799Z,0.00
2022-12-03T04:57:07.818Z,0.00
2022-12-03T04:58:07.897Z,0.00
2022-12-03T04:59:12.721Z,0.00
2022-12-03T05:00:08.820Z,0.00
2022-12-03T05:01:07.796Z,0.00
2022-12-03T05:02:07.855Z,0.00
2022-12-03T05:03:07.783Z,0.00
2022-12-03T05:04:07.720Z,0.00
2022-12-03T05:05:07.697Z,0.00
2022-12-03T05:06:07.669Z,0.00
2022-12-03T05:07:07.669Z,0.00
2022-12-03T05:08:07.865Z,0.00
2022-12-03T05:09:07.649Z,0.00
2022-12-03T05:10:07.727Z,0.00
2022-12-03T05:11:07.625Z,0.00
2022-12-03T05:12:07.594Z,0.00
2022-12-03T05:13:07.585Z,0.00
2022-12-03T05:14:07.633Z,0.00
2022-12-03T05:15:07.663Z,0.00
2022-12-03T05:16:07.598Z,0.00
2022-12-03T05:17:07.580Z,0.00
2022-12-03T05:18:07.537Z,0.00
2022-12-03T05:19:07.501Z,0.00
2022-12-03T05:20:07.551Z,0.00
2022-12-03T05:21:07.491Z,0.00
2022-12-03T05:22:07.658Z,0.00
2022-12-03T05:23:07.470Z,0.00
2022-12-03T05:24:07.412Z,0.00
2022-12-03T05:25:07.470Z,0.00
2022-12-03T05:26:07.629Z,0.00
2022-12-03T05:27:07.406Z,0.00
2022-12-03T05:28:07.388Z,0.00
2022-12-03T05:29:07.376Z,0.00
2022-12-03T05:30:07.339Z,0.00
2022-12-03T05:31:07.410Z,0.00
2022-12-03T05:32:07.389Z,0.00
2022-12-03T05:33:07.318Z,0.00
2022-12-03T05:34:07.319Z,0.00
2022-12-03T05:35:07.286Z,0.00
2022-12-03T05:36:07.243Z,0.00
2022-12-03T05:37:07.261Z,0.00
2022-12-03T05:38:07.370Z,0.00
2022-12-03T05:39:07.236Z,0.00
2022-12-03T05:40:07.358Z,0.00
2022-12-03T05:41:07.192Z,0.00
2022-12-03T05:42:07.181Z,0.00
2022-12-03T05:43:07.189Z,0.00
2022-12-03T05:44:07.453Z,0.00
2022-12-03T05:45:07.148Z,0.00
2022-12-03T05:46:07.233Z,0.00
2022-12-03T05:47:07.134Z,0.00
2022-12-03T05:48:07.082Z,0.00
2022-12-03T05:49:07.114Z,0.00
2022-12-03T05:50:07.260Z,0.00
2022-12-03T05:51:07.066Z,0.00
2022-12-03T05:52:07.071Z,0.00
2022-12-03T05:53:07.041Z,0.00
2022-12-03T05:54:07.060Z,0.00
2022-12-03T05:55:07.015Z,0.00
2022-12-03T05:56:07.374Z,0.00
2022-12-03T05:57:06.991Z,0.00
2022-12-03T05:58:06.989Z,0.00
2022-12-03T05:59:07.038Z,0.00
2022-12-03T06:00:06.993Z,0.00
2022-12-03T06:01:06.946Z,0.00
2022-12-03T06:02:07.098Z,0.00
2022-12-03T06:03:07.024Z,0.00
2022-12-03T06:04:07.016Z,0.00
2022-12-03T06:05:06.868Z,0.00
2022-12-03T06:06:06.836Z,0.00
2022-12-03T06:07:12.355Z,0.00
2022-12-03T06:08:08.041Z,0.00
2022-12-03T06:09:06.826Z,0.00
2022-12-03T06:10:06.897Z,0.00
2022-12-03T06:11:06.790Z,0.00
2022-12-03T06:12:06.761Z,0.00
2022-12-03T06:13:06.780Z,0.00
2022-12-03T06:14:06.872Z,0.00
2022-12-03T06:15:06.751Z,0.00
2022-12-03T06:16:06.761Z,0.00
2022-12-03T06:17:06.718Z,0.00
2022-12-03T06:18:06.666Z,0.00
2022-12-03T06:19:06.691Z,0.00
2022-12-03T06:20:06.803Z,0.00
2022-12-03T06:21:06.663Z,0.00
2022-12-03T06:22:06.660Z,0.00
2022-12-03T06:23:06.623Z,0.00
2022-12-03T06:24:06.589Z,0.00
2022-12-03T06:25:07.335Z,0.00
2022-12-03T06:26:06.770Z,0.00
2022-12-03T06:27:06.549Z,0.00
2022-12-03T06:28:06.625Z,0.00
2022-12-03T06:29:06.584Z,0.00
2022-12-03T06:30:06.530Z,0.00
2022-12-03T06:31:06.556Z,0.00
2022-12-03T06:32:06.578Z,0.00
2022-12-03T06:33:06.466Z,0.00
2022-12-03T06:34:06.524Z,0.00
2022-12-03T06:35:06.463Z,0.00
2022-12-03T06:36:06.467Z,0.00
2022-12-03T06:37:06.413Z,0.00
2022-12-03T06:38:06.585Z,0.00
2022-12-03T06:39:06.411Z,0.00
2022-12-03T06:40:06.429Z,0.00
2022-12-03T06:41:06.368Z,0.00
2022-12-03T06:42:06.380Z,0.00
2022-12-03T06:43:06.325Z,0.00
2022-12-03T06:44:07.476Z,0.00
2022-12-03T06:45:06.316Z,0.00
2022-12-03T06:46:06.410Z,0.00
2022-12-03T06:47:06.276Z,0.00
2022-12-03T06:48:06.290Z,0.00
2022-12-03T06:49:06.245Z,0.00
2022-12-03T06:50:06.462Z,0.00
2022-12-03T06:51:06.213Z,0.00
2022-12-03T06:52:06.266Z,0.00
2022-12-03T06:53:06.202Z,0.00
2022-12-03T06:54:06.210Z,0.00
2022-12-03T06:55:06.178Z,0.00
2022-12-03T06:56:06.285Z,0.00
2022-12-03T06:57:06.145Z,0.00
2022-12-03T06:58:06.194Z,0.00
2022-12-03T06:59:06.115Z,0.00
2022-12-03T07:00:06.156Z,0.00
2022-12-03T07:01:06.127Z,0.00
2022-12-03T07:02:06.331Z,0.00
2022-12-03T07:03:06.113Z,0.00
2022-12-03T07:04:06.128Z,0.00
2022-12-03T07:05:06.045Z,0.00
2022-12-03T07:06:06.042Z,0.00
2022-12-03T07:07:06.012Z,0.00
2022-12-03T07:08:06.147Z,0.00
2022-12-03T07:09:05.969Z,0.00
2022-12-03T07:10:06.062Z,0.00
2022-12-03T07:11:05.952Z,0.00
2022-12-03T07:12:05.966Z,0.00
2022-12-03T07:13:05.932Z,0.00
2022-12-03T07:14:06.234Z,0.00
2022-12-03T07:15:05.923Z,0.00
2022-12-03T07:16:05.991Z,0.00
2022-12-03T07:17:05.877Z,0.00
2022-12-03T07:18:05.895Z,0.00
2022-12-03T07:19:05.839Z,0.00
2022-12-03T07:20:05.942Z,0.00
2022-12-03T07:21:05.821Z,0.00
2022-12-03T07:22:05.868Z,0.00
2022-12-03T07:23:05.782Z,0.00
2022-12-03T07:24:05.793Z,0.00
2022-12-03T07:25:05.794Z,0.00
2022-12-03T07:26:05.914Z,0.00
2022-12-03T07:27:05.731Z,0.00
2022-12-03T07:28:05.794Z,0.00
2022-12-03T07:29:05.704Z,0.00
2022-12-03T07:30:05.731Z,0.00
2022-12-03T07:31:05.733Z,0.00
2022-12-03T07:32:05.845Z,0.00
2022-12-03T07:33:05.650Z,0.00
2022-12-03T07:34:05.856Z,0.00
2022-12-03T07:35:05.630Z,0.00
2022-12-03T07:36:05.634Z,0.00
2022-12-03T07:37:05.599Z,0.00
2022-12-03T07:38:05.672Z,0.00
2022-12-03T07:39:05.565Z,0.00
2022-12-03T07:40:05.622Z,0.00
2022-12-03T07:41:05.529Z,0.00
2022-12-03T07:42:05.550Z,0.00
2022-12-03T07:43:05.509Z,0.00
2022-12-03T07:44:10.863Z,0.00
2022-12-03T07:45:06.529Z,0.00
2022-12-03T07:46:05.575Z,0.00
2022-12-03T07:47:05.522Z,0.00
2022-12-03T07:48:05.525Z,0.00
2022-12-03T07:49:05.435Z,0.00
2022-12-03T07:50:05.604Z,0.00
2022-12-03T07:51:05.427Z,0.00
2022-12-03T07:52:05.418Z,0.00
2022-12-03T07:53:05.367Z,0.00
2022-12-03T07:54:05.384Z,0.00
2022-12-03T07:55:05.364Z,0.00
2022-12-03T07:56:05.523Z,0.00
2022-12-03T07:57:05.345Z,0.00
2022-12-03T07:58:05.326Z,0.00
2022-12-03T07:59:05.289Z,0.00
2022-12-03T08:00:05.329Z,0.00
2022-12-03T08:01:05.300Z,4.00
2022-12-03T08:02:05.550Z,4.00
2022-12-03T08:03:05.265Z,0.00
2022-12-03T08:04:05.239Z,4.00
2022-12-03T08:05:05.234Z,4.00
2022-12-03T08:06:05.233Z,4.00
2022-12-03T08:07:05.172Z,4.00
2022-12-03T08:08:05.425Z,4.00
2022-12-03T08:09:05.248Z,4.00
2022-12-03T08:10:05.168Z,4.00
2022-12-03T08:11:05.128Z,4.00
2022-12-03T08:12:05.184Z,4.00
2022-12-03T08:13:05.095Z,0.00
2022-12-03T08:14:05.194Z,0.00
2022-12-03T08:15:05.389Z,0.00
2022-12-03T08:16:05.133Z,0.00
2022-12-03T08:17:05.097Z,0.00
2022-12-03T08:18:05.066Z,0.00
2022-12-03T08:19:05.005Z,0.00
2022-12-03T08:20:05.172Z,4.00
2022-12-03T08:21:05.050Z,4.00
2022-12-03T08:22:05.047Z,4.00
2022-12-03T08:23:04.976Z,4.00
2022-12-03T08:24:05.036Z,4.00
2022-12-03T08:25:04.933Z,4.00
2022-12-03T08:26:05.021Z,4.00
2022-12-03T08:27:05.080Z,4.00
2022-12-03T08:28:04.945Z,4.00
2022-12-03T08:29:04.883Z,4.00
2022-12-03T08:30:04.905Z,0.00
2022-12-03T08:31:04.923Z,0.00
2022-12-03T08:32:05.149Z,0.00
2022-12-03T08:33:04.913Z,0.00
2022-12-03T08:34:05.041Z,0.00
2022-12-03T08:35:04.840Z,0.00
2022-12-03T08:36:05.759Z,4.00
2022-12-03T08:37:04.833Z,4.00
2022-12-03T08:38:05.503Z,4.00
2022-12-03T08:39:04.951Z,4.00
2022-12-03T08:40:04.763Z,4.00
2022-12-03T08:41:04.807Z,4.00
2022-12-03T08:42:09.258Z,4.00
2022-12-03T08:43:05.685Z,4.00
2022-12-03T08:44:04.863Z,4.00
2022-12-03T08:45:04.787Z,4.00
2022-12-03T08:46:04.777Z,4.00
2022-12-03T08:47:04.741Z,4.00
2022-12-03T08:48:04.769Z,4.00
2022-12-03T08:49:04.609Z,4.00
2022-12-03T08:50:04.745Z,4.00
2022-12-03T08:51:04.625Z,4.00
2022-12-03T08:52:04.771Z,4.00
2022-12-03T08:53:04.556Z,4.00
2022-12-03T08:54:04.571Z,4.00
2022-12-03T08:55:04.512Z,4.00
2022-12-03T08:56:04.606Z,4.00
2022-12-03T08:57:04.558Z,4.00
2022-12-03T08:58:04.492Z,4.00
2022-12-03T08:59:04.467Z,4.00
2022-12-03T09:00:04.472Z,4.00
2022-12-03T09:01:04.475Z,4.00
2022-12-03T09:02:04.526Z,4.00
2022-12-03T09:03:04.545Z,4.00
2022-12-03T09:04:04.460Z,4.00
2022-12-03T09:05:04.405Z,4.00
2022-12-03T09:06:04.445Z,4.00
2022-12-03T09:07:04.359Z,4.00
2022-12-03T09:08:04.537Z,4.00
2022-12-03T09:09:06.913Z,4.00
2022-12-03T09:10:04.342Z,4.00
2022-12-03T09:11:04.305Z,4.00
2022-12-03T09:12:04.307Z,4.00
2022-12-03T09:13:04.271Z,4.00
2022-12-03T09:14:04.352Z,4.00
2022-12-03T09:15:04.357Z,4.00
2022-12-03T09:16:04.313Z,4.00
2022-12-03T09:17:04.297Z,4.00
2022-12-03T09:18:04.220Z,4.00
2022-12-03T09:19:04.196Z,4.00
2022-12-03T09:20:04.269Z,4.00
2022-12-03T09:21:04.225Z,4.00
2022-12-03T09:22:04.173Z,0.00
2022-12-03T09:23:04.120Z,4.00
2022-12-03T09:24:11.662Z,0.00
2022-12-03T09:25:04.148Z,4.00
2022-12-03T09:26:04.801Z,4.00
2022-12-03T09:27:04.240Z,4.00
2022-12-03T09:28:04.142Z,4.00
2022-12-03T09:29:07.636Z,4.00
2022-12-03T09:30:05.071Z,4.00
2022-12-03T09:31:04.057Z,4.00
2022-12-03T09:32:04.249Z,4.00
2022-12-03T09:33:04.047Z,4.00
2022-12-03T09:34:04.060Z,4.00
2022-12-03T09:35:03.955Z,4.00
2022-12-03T09:36:04.071Z,0.00
2022-12-03T09:37:03.940Z,4.00
2022-12-03T09:38:04.218Z,4.00
2022-12-03T09:39:03.956Z,4.00
2022-12-03T09:40:03.922Z,4.00
2022-12-03T09:41:03.902Z,4.00
2022-12-03T09:42:03.905Z,4.00
2022-12-03T09:43:03.854Z,4.00
2022-12-03T09:44:05.174Z,4.00
2022-12-03T09:45:04.043Z,8.00
2022-12-03T09:46:03.893Z,8.00
2022-12-03T09:47:03.809Z,4.00
2022-12-03T09:48:03.814Z,4.00
2022-12-03T09:49:03.789Z,4.00
2022-12-03T09:50:04.028Z,4.00
2022-12-03T09:51:03.781Z,4.00
2022-12-03T09:52:03.761Z,8.00
2022-12-03T09:53:03.723Z,8.00
2022-12-03T09:54:03.732Z,8.00
2022-12-03T09:55:03.691Z,8.00
2022-12-03T09:56:03.777Z,8.00
2022-12-03T09:57:03.718Z,8.00
2022-12-03T09:58:03.666Z,8.00
2022-12-03T09:59:03.623Z,8.00
2022-12-03T10:00:03.651Z,8.00
2022-12-03T10:01:03.632Z,8.00
2022-12-03T10:02:03.949Z,4.00
2022-12-03T10:03:03.648Z,4.00
2022-12-03T10:04:03.670Z,4.00
2022-12-03T10:05:03.669Z,4.00
2022-12-03T10:06:03.590Z,8.00
2022-12-03T10:07:03.537Z,8.00
2022-12-03T10:08:03.764Z,8.00
2022-12-03T10:09:03.543Z,8.00
2022-12-03T10:10:03.517Z,8.00
2022-12-03T10:11:03.505Z,4.00
2022-12-03T10:12:03.492Z,4.00
2022-12-03T10:13:03.475Z,8.00
2022-12-03T10:14:03.539Z,8.00
2022-12-03T10:15:03.473Z,8.00
2022-12-03T10:16:03.423Z,8.00
2022-12-03T10:17:03.472Z,8.00
2022-12-03T10:18:03.407Z,8.00
2022-12-03T10:19:03.364Z,4.00
2022-12-03T10:20:03.442Z,8.00
2022-12-03T10:21:03.396Z,8.00
2022-12-03T10:22:03.384Z,4.00
2022-12-03T10:23:03.289Z,8.00
2022-12-03T10:24:03.306Z,8.00
2022-12-03T10:25:03.271Z,4.00
2022-12-03T10:26:03.365Z,8.00
2022-12-03T10:27:03.352Z,8.00
2022-12-03T10:28:03.264Z,8.00
2022-12-03T10:29:03.211Z,8.00
2022-12-03T10:30:03.262Z,8.00
2022-12-03T10:31:03.261Z,8.00
2022-12-03T10:32:03.288Z,8.00
2022-12-03T10:33:03.228Z,8.00
2022-12-03T10:34:03.171Z,8.00
2022-12-03T10:35:03.154Z,8.00
2022-12-03T10:36:03.306Z,8.00
2022-12-03T10:37:03.131Z,8.00
2022-12-03T10:38:03.268Z,8.00
2022-12-03T10:39:03.357Z,8.00
2022-12-03T10:40:03.058Z,4.00
2022-12-03T10:41:03.087Z,8.00
2022-12-03T10:42:03.160Z,36.00
2022-12-03T10:43:03.083Z,36.00
2022-12-03T10:44:03.095Z,24.00
2022-12-03T10:45:03.063Z,32.00
2022-12-03T10:46:04.516Z,32.00
2022-12-03T10:47:03.149Z,28.00
2022-12-03T10:48:02.960Z,28.00
2022-12-03T10:49:02.971Z,28.00
2022-12-03T10:50:03.024Z,24.00
2022-12-03T10:51:03.040Z,28.00
2022-12-03T10:52:02.946Z,28.00
2022-12-03T10:53:02.941Z,24.00
2022-12-03T10:54:02.884Z,28.00
2022-12-03T10:55:02.895Z,28.00
2022-12-03T10:56:03.244Z,24.00
2022-12-03T10:57:02.911Z,24.00
2022-12-03T10:58:02.826Z,24.00
2022-12-03T10:59:02.845Z,24.00
2022-12-03T11:00:02.793Z,12.00
2022-12-03T11:01:02.856Z,16.00
2022-12-03T11:02:03.036Z,20.00
2022-12-03T11:03:02.895Z,16.00
2022-12-03T11:04:02.907Z,16.00
2022-12-03T11:05:02.757Z,16.00
2022-12-03T11:06:02.717Z,16.00
2022-12-03T11:07:02.717Z,16.00
2022-12-03T11:08:02.958Z,16.00
2022-12-03T11:09:08.571Z,16.00
2022-12-03T11:10:03.663Z,16.00
2022-12-03T11:11:02.676Z,16.00
2022-12-03T11:12:02.634Z,16.00
2022-12-03T11:13:02.641Z,16.00
2022-12-03T11:14:02.875Z,16.00
2022-12-03T11:15:02.672Z,12.00
2022-12-03T11:16:02.610Z,12.00
2022-12-03T11:17:02.590Z,12.00
2022-12-03T11:18:02.565Z,16.00
2022-12-03T11:19:02.579Z,12.00
2022-12-03T11:20:02.612Z,12.00
2022-12-03T11:21:02.571Z,12.00
2022-12-03T11:22:02.504Z,12.00
2022-12-03T11:23:02.565Z,12.00
2022-12-03T11:24:02.465Z,8.00
2022-12-03T11:25:02.478Z,12.00
2022-12-03T11:26:02.524Z,12.00
2022-12-03T11:27:02.501Z,16.00
2022-12-03T11:28:02.411Z,16.00
2022-12-03T11:29:02.416Z,12.00
2022-12-03T11:30:02.450Z,16.00
2022-12-03T11:31:02.459Z,16.00
2022-12-03T11:32:02.458Z,16.00
2022-12-03T11:33:02.387Z,16.00
2022-12-03T11:34:02.334Z,20.00
2022-12-03T11:35:02.336Z,20.00
2022-12-03T11:36:02.305Z,16.00
2022-12-03T11:37:02.325Z,16.00
2022-12-03T11:38:02.367Z,16.00
2022-12-03T11:39:02.318Z,16.00
2022-12-03T11:40:02.230Z,16.00
2022-12-03T11:41:02.242Z,16.00
2022-12-03T11:42:02.228Z,16.00
2022-12-03T11:43:02.249Z,16.00
2022-12-03T11:44:02.368Z,16.00
2022-12-03T11:45:02.264Z,16.00
2022-12-03T11:46:04.437Z,16.00
2022-12-03T11:47:02.361Z,16.00
2022-12-03T11:48:02.130Z,16.00
2022-12-03T11:49:02.167Z,16.00
2022-12-03T11:50:02.511Z,16.00
2022-12-03T11:51:02.179Z,20.00
2022-12-03T11:52:02.066Z,20.00
2022-12-03T11:53:02.078Z,16.00
2022-12-03T11:54:02.053Z,16.00
2022-12-03T11:55:02.078Z,12.00
2022-12-03T11:56:04.509Z,16.00
2022-12-03T11:57:02.212Z,16.00
2022-12-03T11:58:01.988Z,16.00
2022-12-03T11:59:02.008Z,16.00
2022-12-03T12:00:01.974Z,12.00
2022-12-03T12:01:01.963Z,12.00
2022-12-03T12:02:02.038Z,12.00
2022-12-03T12:03:02.055Z,12.00
2022-12-03T12:04:01.920Z,16.00
2022-12-03T12:05:01.922Z,12.00
2022-12-03T12:06:01.872Z,12.00
2022-12-03T12:07:01.911Z,12.00
2022-12-03T12:08:02.060Z,16.00
2022-12-03T12:09:01.906Z,12.00
2022-12-03T12:10:01.818Z,12.00
2022-12-03T12:11:01.828Z,16.00
2022-12-03T12:12:01.789Z,16.00
2022-12-03T12:13:01.800Z,16.00
2022-12-03T12:14:01.840Z,20.00
2022-12-03T12:15:01.823Z,16.00
2022-12-03T12:16:01.773Z,20.00
2022-12-03T12:17:01.750Z,16.00
2022-12-03T12:18:01.720Z,16.00
2022-12-03T12:19:01.727Z,16.00
2022-12-03T12:20:01.841Z,20.00
2022-12-03T12:21:01.776Z,16.00
2022-12-03T12:22:01.679Z,16.00
2022-12-03T12:23:01.662Z,16.00
2022-12-03T12:24:01.642Z,16.00
2022-12-03T12:25:01.644Z,16.00
2022-12-03T12:26:01.693Z,16.00
2022-12-03T12:27:01.642Z,20.00
2022-12-03T12:28:01.579Z,16.00
2022-12-03T12:29:01.603Z,16.00
2022-12-03T12:30:01.554Z,16.00
2022-12-03T12:31:01.606Z,16.00
2022-12-03T12:32:01.651Z,16.00
2022-12-03T12:33:01.575Z,16.00
2022-12-03T12:34:01.490Z,12.00
2022-12-03T12:35:01.520Z,12.00
2022-12-03T12:36:01.479Z,12.00
2022-12-03T12:37:01.477Z,16.00
2022-12-03T12:38:01.543Z,16.00
2022-12-03T12:39:01.479Z,16.00
2022-12-03T12:40:01.410Z,16.00
2022-12-03T12:41:01.436Z,16.00
2022-12-03T12:42:01.381Z,16.00
2022-12-03T12:43:05.399Z,16.00
2022-12-03T12:44:02.481Z,16.00
2022-12-03T12:45:01.352Z,16.00
2022-12-03T12:46:18.804Z,16.00
2022-12-03T12:47:02.408Z,20.00
2022-12-03T12:48:01.304Z,20.00
2022-12-03T12:49:01.344Z,16.00
2022-12-03T12:50:01.478Z,16.00
2022-12-03T12:51:01.277Z,16.00
2022-12-03T12:52:01.241Z,20.00
2022-12-03T12:53:01.270Z,16.00
2022-12-03T12:54:01.220Z,16.00
2022-12-03T12:55:04.869Z,16.00
2022-12-03T12:56:01.401Z,16.00
2022-12-03T12:57:01.238Z,16.00
2022-12-03T12:58:01.198Z,16.00
2022-12-03T12:59:01.175Z,16.00
2022-12-03T13:00:01.126Z,16.00
2022-12-03T13:01:01.279Z,16.00
2022-12-03T13:02:04.554Z,12.00
2022-12-03T13:03:02.177Z,12.00
2022-12-03T13:04:01.080Z,12.00
2022-12-03T13:05:01.090Z,12.00
2022-12-03T13:06:01.063Z,12.00
2022-12-03T13:07:01.077Z,16.00
2022-12-03T13:08:03.630Z,16.00
2022-12-03T13:09:02.020Z,16.00
2022-12-03T13:10:01.010Z,16.00
2022-12-03T13:11:01.028Z,16.00
2022-12-03T13:12:00.966Z,16.00
2022-12-03T13:13:01.015Z,16.00